Randolph, VT

7:01 AM EDT on April 26, 2017 (GMT -0400)
Haven Street | | Change Station

Elev 955 ft 43.93 °N, 72.67 °W | Updated 5 seconds ago

Rain
Rain
47.7 °F
Feels Like 48 °F
N
0.0
Wind Variable Wind from North
Gusts 0.0 mph

Today
High -- | Low -- °F
--% Chance of Precip.
Yesterday
High -- | Low -- °F
Precip. -- in
Pressure 30.02 in
Visibility 0.5 miles
Clouds
Windchill 48 °F
Dew Point 48 °F
Humidity 99%
Rainfall 0.11 in
Snow Depth Not available.
5:49 AM 7:48 PM
Waning Crescent, 0% visible
METAR KMPV 261051Z AUTO 00000KT 1/2SM FG VV003 07/07 A3000 RMK AO2 SLP165 T00720072
Pressure 30.02 in
Visibility 0.5 miles
Clouds
Windchill 48 °F
Dew Point 48 °F
Humidity 99%
Rainfall 0.11 in
Snow Depth Not available.
5:49 AM 7:48 PM
Waning Crescent, 0% visible
METAR KMPV 261051Z AUTO 00000KT 1/2SM FG VV003 07/07 A3000 RMK AO2 SLP165 T00720072

Get Severe Weather Alerts

Thanks for signing up!

Be on the lookout for a verification email in your inbox.

You'll start receiving the daily forecast at 8 AM.

×

10-Day Weather Forecast

Almanac

Astronomy

Apr. 26, 2017 Rise Set
Actual Time
Civil Twilight
Nautical Twilight
Astronomical Twilight
Moon
Length of Visible Light
Length of Day
Tomorrow will be .
, % of the Moon is Illuminated

Today's Extremes

State Highs State Lows

Community

WunderPhotos

WunderBlog® & News

Nearby

Air Quality

  Air Quality AQ Index Pollutant
Not available.

Snow Depth

Station Depth Elevation

Earthquake Activity

City Distance Mag. Time & Date
Minimum magnitude displayed is 2.5.

Coastal Water Temperatures

Place Temperature

Stations

Nearby Weather Stations

Station Location Temp. Windchill Dew Point Humidity Wind Precip. Elev Updated Type
                   

Watches & Warnings

There are currently no watches in effect.